createdAt,value
2023-04-30T00:00:22.510Z,7.00
2023-04-30T00:01:22.532Z,7.30
2023-04-30T00:02:22.693Z,8.50
2023-04-30T00:03:22.528Z,7.30
2023-04-30T00:04:22.562Z,7.20
2023-04-30T00:05:22.459Z,8.10
2023-04-30T00:06:22.525Z,7.10
2023-04-30T00:07:22.437Z,7.50
2023-04-30T00:08:22.431Z,7.60
2023-04-30T00:09:22.427Z,8.20
2023-04-30T00:10:22.402Z,11.20
2023-04-30T00:11:22.424Z,8.60
2023-04-30T00:12:22.396Z,8.70
2023-04-30T00:13:22.367Z,8.40
2023-04-30T00:14:22.358Z,7.10
2023-04-30T00:15:22.352Z,6.90
2023-04-30T00:16:22.403Z,7.90
2023-04-30T00:17:22.425Z,7.30
2023-04-30T00:18:22.364Z,7.50
2023-04-30T00:19:22.300Z,9.20
2023-04-30T00:20:22.290Z,7.80
2023-04-30T00:21:22.297Z,7.90
2023-04-30T00:22:22.266Z,7.90
2023-04-30T00:23:22.253Z,7.90
2023-04-30T00:24:22.264Z,8.30
2023-04-30T00:25:22.236Z,7.40
2023-04-30T00:26:22.244Z,10.10
2023-04-30T00:27:22.235Z,8.60
2023-04-30T00:28:22.214Z,10.50
2023-04-30T00:29:22.204Z,8.10
2023-04-30T00:30:22.182Z,10.30
2023-04-30T00:31:22.227Z,8.60
2023-04-30T00:32:22.407Z,8.60
2023-04-30T00:33:22.145Z,10.30
2023-04-30T00:34:22.147Z,8.00
2023-04-30T00:35:22.120Z,8.70
2023-04-30T00:36:22.140Z,8.90
2023-04-30T00:37:22.099Z,8.80
2023-04-30T00:38:22.101Z,8.10
2023-04-30T00:39:22.094Z,8.30
2023-04-30T00:40:22.080Z,8.00
2023-04-30T00:41:22.073Z,9.40
2023-04-30T00:42:22.046Z,9.50
2023-04-30T00:43:22.041Z,8.60
2023-04-30T00:44:22.030Z,9.00
2023-04-30T00:45:22.021Z,8.40
2023-04-30T00:46:22.139Z,8.20
2023-04-30T00:47:22.084Z,10.00
2023-04-30T00:48:21.991Z,7.20
2023-04-30T00:49:21.970Z,7.80
2023-04-30T00:50:21.974Z,10.80
2023-04-30T00:51:21.967Z,7.60
2023-04-30T00:52:21.923Z,8.80
2023-04-30T00:53:21.926Z,7.10
2023-04-30T00:54:21.904Z,7.80
2023-04-30T00:55:21.904Z,7.70
2023-04-30T00:56:21.899Z,7.90
2023-04-30T00:57:21.885Z,7.00
2023-04-30T00:58:21.863Z,7.80
2023-04-30T00:59:21.857Z,7.70
2023-04-30T01:00:21.846Z,8.60
2023-04-30T01:01:21.868Z,10.10
2023-04-30T01:02:21.902Z,8.00
2023-04-30T01:03:21.913Z,8.20
2023-04-30T01:04:21.800Z,8.30
2023-04-30T01:05:21.777Z,9.20
2023-04-30T01:06:21.843Z,7.00
2023-04-30T01:07:21.782Z,8.50
2023-04-30T01:08:21.758Z,9.30
2023-04-30T01:09:21.755Z,9.20
2023-04-30T01:10:21.861Z,10.00
2023-04-30T01:11:21.723Z,10.50
2023-04-30T01:12:21.728Z,9.70
2023-04-30T01:13:21.709Z,10.50
2023-04-30T01:14:21.688Z,8.40
2023-04-30T01:15:21.666Z,9.40
2023-04-30T01:16:21.694Z,9.00
2023-04-30T01:17:21.650Z,11.60
2023-04-30T01:18:21.700Z,9.30
2023-04-30T01:19:21.624Z,8.70
2023-04-30T01:20:21.608Z,9.40
2023-04-30T01:21:21.636Z,10.70
2023-04-30T01:22:21.616Z,11.10
2023-04-30T01:23:21.593Z,10.00
2023-04-30T01:24:21.564Z,8.90
2023-04-30T01:25:21.583Z,9.20
2023-04-30T01:26:21.560Z,9.80
2023-04-30T01:27:21.559Z,8.20
2023-04-30T01:28:21.517Z,8.50
2023-04-30T01:29:21.515Z,8.70
2023-04-30T01:30:21.499Z,9.70
2023-04-30T01:31:21.540Z,10.30
2023-04-30T01:32:21.477Z,11.70
2023-04-30T01:33:21.480Z,9.20
2023-04-30T01:34:21.462Z,10.40
2023-04-30T01:35:21.443Z,12.10
2023-04-30T01:36:21.477Z,11.00
2023-04-30T01:37:21.446Z,8.30
2023-04-30T01:38:21.432Z,10.00
2023-04-30T01:39:21.405Z,10.10
2023-04-30T01:40:21.387Z,13.20
2023-04-30T01:41:21.397Z,9.80
2023-04-30T01:42:21.376Z,10.10
2023-04-30T01:43:21.355Z,11.00
2023-04-30T01:44:21.355Z,9.40
2023-04-30T01:45:21.467Z,9.70
2023-04-30T01:46:21.435Z,11.10
2023-04-30T01:47:21.364Z,10.20
2023-04-30T01:48:21.317Z,12.30
2023-04-30T01:49:21.282Z,11.70
2023-04-30T01:50:21.375Z,10.60
2023-04-30T01:51:21.280Z,9.60
2023-04-30T01:52:21.259Z,11.70
2023-04-30T01:53:21.240Z,13.10
2023-04-30T01:54:21.265Z,10.70
2023-04-30T01:55:21.231Z,10.30
2023-04-30T01:56:21.224Z,10.20
2023-04-30T01:57:21.205Z,9.90
2023-04-30T01:58:21.197Z,11.80
2023-04-30T01:59:21.193Z,10.60
2023-04-30T02:00:21.179Z,10.20
2023-04-30T02:01:21.191Z,10.30
2023-04-30T02:02:21.166Z,14.10
2023-04-30T02:03:21.195Z,10.10
2023-04-30T02:04:21.141Z,12.00
2023-04-30T02:05:21.134Z,9.70
2023-04-30T02:06:21.164Z,10.70
2023-04-30T02:07:21.108Z,9.70
2023-04-30T02:08:21.090Z,11.10
2023-04-30T02:09:21.067Z,9.80
2023-04-30T02:10:21.079Z,9.80
2023-04-30T02:11:21.094Z,11.30
2023-04-30T02:12:21.028Z,11.50
2023-04-30T02:13:21.025Z,10.90
2023-04-30T02:14:21.008Z,10.30
2023-04-30T02:15:21.017Z,12.40
2023-04-30T02:16:21.041Z,12.50
2023-04-30T02:17:20.986Z,11.10
2023-04-30T02:18:21.035Z,10.70
2023-04-30T02:19:20.956Z,10.60
2023-04-30T02:20:20.935Z,9.30
2023-04-30T02:21:20.917Z,11.50
2023-04-30T02:22:20.930Z,11.50
2023-04-30T02:23:20.920Z,12.30
2023-04-30T02:24:20.895Z,12.10
2023-04-30T02:25:20.888Z,14.10
2023-04-30T02:26:20.892Z,11.50
2023-04-30T02:27:20.880Z,10.90
2023-04-30T02:28:20.852Z,12.30
2023-04-30T02:29:20.862Z,13.30
2023-04-30T02:30:20.850Z,11.80
2023-04-30T02:31:20.838Z,11.10
2023-04-30T02:32:20.833Z,13.60
2023-04-30T02:33:20.800Z,10.60
2023-04-30T02:34:20.780Z,12.20
2023-04-30T02:35:20.780Z,11.90
2023-04-30T02:36:20.759Z,12.70
2023-04-30T02:37:20.780Z,11.30
2023-04-30T02:38:20.761Z,10.70
2023-04-30T02:39:20.769Z,9.10
2023-04-30T02:40:20.733Z,10.30
2023-04-30T02:41:20.698Z,11.30
2023-04-30T02:42:20.723Z,11.10
2023-04-30T02:43:20.677Z,9.10
2023-04-30T02:44:20.669Z,11.00
2023-04-30T02:45:20.662Z,10.70
2023-04-30T02:46:20.761Z,10.00
2023-04-30T02:47:20.654Z,10.70
2023-04-30T02:48:20.632Z,9.90
2023-04-30T02:49:20.605Z,12.60
2023-04-30T02:50:20.607Z,9.00
2023-04-30T02:51:20.589Z,8.80
2023-04-30T02:52:20.598Z,10.70
2023-04-30T02:53:20.573Z,11.70
2023-04-30T02:54:20.559Z,10.20
2023-04-30T02:55:20.564Z,11.90
2023-04-30T02:56:20.533Z,12.10
2023-04-30T02:57:20.526Z,14.40
2023-04-30T02:58:20.540Z,10.60
2023-04-30T02:59:20.500Z,11.40
2023-04-30T03:00:20.492Z,8.50
2023-04-30T03:01:20.498Z,9.40
2023-04-30T03:02:20.514Z,8.40
2023-04-30T03:03:20.640Z,7.60
2023-04-30T03:04:20.440Z,11.70
2023-04-30T03:05:20.453Z,9.50
2023-04-30T03:06:20.453Z,9.50
2023-04-30T03:07:20.425Z,9.20
2023-04-30T03:08:20.404Z,10.30
2023-04-30T03:09:20.387Z,9.60
2023-04-30T03:10:20.372Z,8.90
2023-04-30T03:11:20.396Z,10.00
2023-04-30T03:12:20.390Z,9.30
2023-04-30T03:13:20.339Z,9.90
2023-04-30T03:14:20.353Z,10.30
2023-04-30T03:15:20.317Z,10.00
2023-04-30T03:16:20.358Z,8.60
2023-04-30T03:17:20.341Z,10.50
2023-04-30T03:18:20.296Z,11.00
2023-04-30T03:19:20.273Z,10.30
2023-04-30T03:20:20.264Z,12.00
2023-04-30T03:21:20.257Z,10.60
2023-04-30T03:22:20.265Z,13.00
2023-04-30T03:23:20.235Z,9.90
2023-04-30T03:24:20.229Z,10.60
2023-04-30T03:25:20.223Z,10.50
2023-04-30T03:26:20.199Z,9.50
2023-04-30T03:27:20.205Z,8.90
2023-04-30T03:28:20.176Z,11.90
2023-04-30T03:29:20.177Z,8.50
2023-04-30T03:30:20.195Z,10.40
2023-04-30T03:31:20.170Z,10.50
2023-04-30T03:32:20.163Z,10.60
2023-04-30T03:33:20.277Z,9.50
2023-04-30T03:34:20.120Z,9.50
2023-04-30T03:35:20.092Z,11.50
2023-04-30T03:36:20.093Z,8.80
2023-04-30T03:37:20.110Z,9.10
2023-04-30T03:38:20.069Z,9.00
2023-04-30T03:39:20.065Z,9.40
2023-04-30T03:40:20.036Z,10.70
2023-04-30T03:41:20.057Z,8.70
2023-04-30T03:42:20.040Z,10.60
2023-04-30T03:43:20.031Z,10.10
2023-04-30T03:44:20.020Z,10.30
2023-04-30T03:45:19.993Z,12.80
2023-04-30T03:46:20.020Z,10.80
2023-04-30T03:47:19.979Z,8.80
2023-04-30T03:48:19.996Z,9.90
2023-04-30T03:49:19.936Z,12.50
2023-04-30T03:50:19.944Z,8.30
2023-04-30T03:51:19.921Z,10.30
2023-04-30T03:52:19.915Z,10.80
2023-04-30T03:53:19.922Z,8.80
2023-04-30T03:54:19.904Z,9.40
2023-04-30T03:55:19.874Z,10.90
2023-04-30T03:56:19.862Z,10.40
2023-04-30T03:57:19.852Z,9.30
2023-04-30T03:58:19.871Z,9.40
2023-04-30T03:59:19.833Z,11.70
2023-04-30T04:00:19.819Z,11.10
2023-04-30T04:01:19.815Z,10.90
2023-04-30T04:02:19.843Z,10.20
2023-04-30T04:03:19.883Z,10.60
2023-04-30T04:04:19.813Z,13.80
2023-04-30T04:05:19.774Z,12.10
2023-04-30T04:06:19.806Z,11.40
2023-04-30T04:07:19.779Z,10.30
2023-04-30T04:08:20.219Z,9.10
2023-04-30T04:09:19.722Z,10.40
2023-04-30T04:10:19.716Z,8.60
2023-04-30T04:11:19.711Z,11.10
2023-04-30T04:12:19.717Z,9.80
2023-04-30T04:13:19.708Z,10.40
2023-04-30T04:14:19.672Z,11.50
2023-04-30T04:15:19.657Z,11.90
2023-04-30T04:16:19.694Z,10.80
2023-04-30T04:17:19.649Z,9.80
2023-04-30T04:18:19.766Z,10.20
2023-04-30T04:19:19.621Z,9.30
2023-04-30T04:20:19.600Z,12.20
2023-04-30T04:21:19.578Z,11.40
2023-04-30T04:22:19.575Z,11.30
2023-04-30T04:23:19.593Z,10.70
2023-04-30T04:24:19.558Z,9.70
2023-04-30T04:25:19.546Z,10.80
2023-04-30T04:26:19.537Z,11.30
2023-04-30T04:27:19.529Z,10.00
2023-04-30T04:28:19.530Z,10.10
2023-04-30T04:29:19.500Z,10.90
2023-04-30T04:30:19.480Z,8.80
2023-04-30T04:31:19.486Z,11.00
2023-04-30T04:32:19.469Z,9.70
2023-04-30T04:33:19.483Z,12.00
2023-04-30T04:34:19.484Z,10.10
2023-04-30T04:35:19.458Z,10.00
2023-04-30T04:36:19.424Z,9.40
2023-04-30T04:37:19.408Z,10.30
2023-04-30T04:38:19.949Z,10.90
2023-04-30T04:39:19.403Z,11.10
2023-04-30T04:40:19.386Z,10.20
2023-04-30T04:41:19.359Z,11.10
2023-04-30T04:42:19.354Z,9.60
2023-04-30T04:43:19.382Z,10.10
2023-04-30T04:44:19.331Z,11.10
2023-04-30T04:45:19.318Z,9.60
2023-04-30T04:46:19.343Z,9.20
2023-04-30T04:47:19.290Z,11.10
2023-04-30T04:48:19.284Z,10.10
2023-04-30T04:49:19.293Z,11.40
2023-04-30T04:50:19.271Z,9.40
2023-04-30T04:51:19.258Z,9.90
2023-04-30T04:52:19.234Z,10.10
2023-04-30T04:53:19.237Z,10.60
2023-04-30T04:54:19.219Z,8.80
2023-04-30T04:55:19.200Z,11.70
2023-04-30T04:56:19.205Z,10.40
2023-04-30T04:57:19.214Z,10.90
2023-04-30T04:58:19.183Z,9.90
2023-04-30T04:59:19.167Z,11.50
2023-04-30T05:00:19.146Z,11.90
2023-04-30T05:01:19.183Z,10.90
2023-04-30T05:02:19.119Z,11.00
2023-04-30T05:03:19.307Z,11.70
2023-04-30T05:04:19.115Z,11.20
2023-04-30T05:05:19.096Z,10.80
2023-04-30T05:06:19.125Z,10.90
2023-04-30T05:07:19.079Z,11.30
2023-04-30T05:08:19.066Z,11.90
2023-04-30T05:09:19.063Z,12.00
2023-04-30T05:10:19.035Z,11.10
2023-04-30T05:11:19.038Z,10.90
2023-04-30T05:12:19.025Z,11.00
2023-04-30T05:13:19.027Z,11.70
2023-04-30T05:14:18.990Z,11.20
2023-04-30T05:15:19.003Z,11.40
2023-04-30T05:16:19.044Z,10.50
2023-04-30T05:17:18.953Z,10.20
2023-04-30T05:18:18.981Z,9.80
2023-04-30T05:19:18.938Z,12.90
2023-04-30T05:20:18.916Z,13.20
2023-04-30T05:21:18.917Z,15.30
2023-04-30T05:22:18.928Z,13.10
2023-04-30T05:23:18.899Z,11.30
2023-04-30T05:24:18.903Z,11.00
2023-04-30T05:25:18.875Z,11.30
2023-04-30T05:26:18.847Z,9.50
2023-04-30T05:27:18.839Z,11.90
2023-04-30T05:28:18.830Z,12.00
2023-04-30T05:29:18.843Z,12.40
2023-04-30T05:30:18.818Z,10.30
2023-04-30T05:31:20.797Z,9.70
2023-04-30T05:32:18.784Z,11.60
2023-04-30T05:33:18.777Z,11.80
2023-04-30T05:34:18.788Z,15.00
2023-04-30T05:35:18.754Z,11.60
2023-04-30T05:36:18.740Z,12.70
2023-04-30T05:37:18.728Z,12.30
2023-04-30T05:38:18.739Z,12.10
2023-04-30T05:39:18.747Z,14.80
2023-04-30T05:40:18.722Z,11.10
2023-04-30T05:41:18.685Z,13.70
2023-04-30T05:42:18.695Z,14.00
2023-04-30T05:43:18.695Z,14.10
2023-04-30T05:44:18.659Z,13.30
2023-04-30T05:45:18.655Z,12.80
2023-04-30T05:46:18.648Z,14.80
2023-04-30T05:47:18.616Z,13.30
2023-04-30T05:48:18.632Z,16.90
2023-04-30T05:49:18.610Z,14.60
2023-04-30T05:50:18.589Z,12.00
2023-04-30T05:51:18.580Z,14.10
2023-04-30T05:52:18.557Z,14.70
2023-04-30T05:53:18.563Z,16.10
2023-04-30T05:54:18.568Z,15.60
2023-04-30T05:55:18.535Z,14.00
2023-04-30T05:56:18.514Z,12.40
2023-04-30T05:57:18.519Z,13.50
2023-04-30T05:58:18.505Z,12.40
2023-04-30T05:59:18.520Z,11.40
2023-04-30T06:00:18.475Z,13.90
2023-04-30T06:01:18.466Z,13.20
2023-04-30T06:02:18.464Z,13.10
2023-04-30T06:03:18.466Z,13.00
2023-04-30T06:04:18.460Z,13.80
2023-04-30T06:05:18.450Z,13.10
2023-04-30T06:06:18.435Z,9.80
2023-04-30T06:07:18.400Z,15.00
2023-04-30T06:08:18.394Z,12.60
2023-04-30T06:09:18.394Z,11.50
2023-04-30T06:10:18.386Z,10.00
2023-04-30T06:11:18.362Z,12.30
2023-04-30T06:12:18.378Z,12.00
2023-04-30T06:13:18.342Z,10.00
2023-04-30T06:14:18.348Z,11.90
2023-04-30T06:15:18.304Z,11.00
2023-04-30T06:16:18.338Z,10.60
2023-04-30T06:17:18.284Z,8.80
2023-04-30T06:18:18.274Z,8.60
2023-04-30T06:19:18.290Z,11.20
2023-04-30T06:20:18.257Z,9.00
2023-04-30T06:21:18.246Z,9.60
2023-04-30T06:22:18.253Z,9.80
2023-04-30T06:23:18.233Z,11.90
2023-04-30T06:24:18.223Z,8.90
2023-04-30T06:25:18.197Z,8.90
2023-04-30T06:26:18.193Z,9.70
2023-04-30T06:27:18.179Z,9.90
2023-04-30T06:28:18.165Z,9.10
2023-04-30T06:29:18.179Z,8.40
2023-04-30T06:30:18.155Z,8.50
2023-04-30T06:31:18.161Z,8.30
2023-04-30T06:32:18.115Z,8.20
2023-04-30T06:33:18.113Z,11.40
2023-04-30T06:34:18.299Z,12.00
2023-04-30T06:35:18.081Z,9.30
2023-04-30T06:36:18.068Z,11.40
2023-04-30T06:37:18.056Z,10.80
2023-04-30T06:38:18.047Z,10.00
2023-04-30T06:39:18.046Z,13.10
2023-04-30T06:40:18.034Z,7.90
2023-04-30T06:41:18.023Z,9.10
2023-04-30T06:42:18.028Z,9.00
2023-04-30T06:43:17.983Z,8.60
2023-04-30T06:44:18.009Z,8.80
2023-04-30T06:45:17.987Z,9.20
2023-04-30T06:46:18.000Z,8.10
2023-04-30T06:47:17.951Z,7.90
2023-04-30T06:48:17.933Z,8.20
2023-04-30T06:49:18.154Z,9.20
2023-04-30T06:50:17.911Z,9.90
2023-04-30T06:51:17.898Z,9.20
2023-04-30T06:52:17.884Z,8.20
2023-04-30T06:53:17.880Z,7.50
2023-04-30T06:54:17.911Z,9.90
2023-04-30T06:55:17.850Z,10.10
2023-04-30T06:56:17.859Z,11.30
2023-04-30T06:57:17.837Z,8.70
2023-04-30T06:58:17.834Z,8.20
2023-04-30T06:59:17.839Z,10.10
2023-04-30T07:00:17.801Z,9.50
2023-04-30T07:01:17.834Z,7.40
2023-04-30T07:02:18.911Z,8.90
2023-04-30T07:03:17.813Z,8.10
2023-04-30T07:04:17.762Z,12.60
2023-04-30T07:05:17.735Z,8.40
2023-04-30T07:06:17.749Z,6.60
2023-04-30T07:07:17.719Z,9.90
2023-04-30T07:08:17.719Z,8.10
2023-04-30T07:09:17.717Z,6.50
2023-04-30T07:10:17.688Z,8.50
2023-04-30T07:11:17.663Z,9.80
2023-04-30T07:12:17.650Z,8.10
2023-04-30T07:13:17.650Z,9.10
2023-04-30T07:14:17.670Z,8.20
2023-04-30T07:15:17.630Z,8.90
2023-04-30T07:16:17.652Z,7.90
2023-04-30T07:17:17.650Z,7.30
2023-04-30T07:18:17.604Z,6.50
2023-04-30T07:19:17.593Z,7.10
2023-04-30T07:20:17.576Z,9.60
2023-04-30T07:21:17.552Z,7.20
2023-04-30T07:22:17.548Z,8.00
2023-04-30T07:23:17.539Z,5.80
2023-04-30T07:24:17.542Z,8.00
2023-04-30T07:25:17.506Z,7.10
2023-04-30T07:26:17.505Z,9.10
2023-04-30T07:27:17.484Z,7.40
2023-04-30T07:28:17.485Z,8.40
2023-04-30T07:29:17.458Z,8.50
2023-04-30T07:30:17.471Z,6.40
2023-04-30T07:31:17.505Z,8.20
2023-04-30T07:32:17.431Z,6.30
2023-04-30T07:33:17.474Z,7.20
2023-04-30T07:34:17.411Z,5.90
2023-04-30T07:35:17.395Z,6.40
2023-04-30T07:36:17.387Z,8.90
2023-04-30T07:37:17.384Z,7.40
2023-04-30T07:38:17.376Z,7.50
2023-04-30T07:39:17.352Z,6.00
2023-04-30T07:40:25.387Z,8.90
2023-04-30T07:41:18.330Z,6.80
2023-04-30T07:42:17.311Z,9.70
2023-04-30T07:43:17.560Z,5.10
2023-04-30T07:44:17.293Z,8.30
2023-04-30T07:45:17.284Z,5.70
2023-04-30T07:46:17.345Z,9.30
2023-04-30T07:47:17.273Z,8.50
2023-04-30T07:48:17.254Z,9.30
2023-04-30T07:49:17.237Z,6.60
2023-04-30T07:50:17.235Z,7.50
2023-04-30T07:51:17.215Z,9.90
2023-04-30T07:52:17.216Z,9.10
2023-04-30T07:53:17.202Z,7.00
2023-04-30T07:54:17.180Z,6.40
2023-04-30T07:55:17.176Z,7.90
2023-04-30T07:56:17.156Z,8.60
2023-04-30T07:57:17.163Z,5.20
2023-04-30T07:58:17.171Z,7.10
2023-04-30T07:59:17.152Z,6.70
2023-04-30T08:00:17.114Z,8.00
2023-04-30T08:01:17.129Z,7.10
2023-04-30T08:02:17.224Z,7.50
2023-04-30T08:03:17.246Z,6.40
2023-04-30T08:04:17.116Z,7.50
2023-04-30T08:05:17.075Z,6.70
2023-04-30T08:06:17.086Z,6.90
2023-04-30T08:07:17.100Z,5.90
2023-04-30T08:08:17.084Z,8.00
2023-04-30T08:09:17.058Z,6.30
2023-04-30T08:10:17.008Z,6.40
2023-04-30T08:11:17.008Z,8.00
2023-04-30T08:12:16.988Z,10.60
2023-04-30T08:13:17.057Z,5.80
2023-04-30T08:14:17.020Z,7.10
2023-04-30T08:15:17.067Z,7.00
2023-04-30T08:16:17.047Z,6.50
2023-04-30T08:17:16.979Z,7.60
2023-04-30T08:18:17.093Z,4.50
2023-04-30T08:19:16.896Z,7.80
2023-04-30T08:20:16.957Z,6.30
2023-04-30T08:21:16.936Z,7.10
2023-04-30T08:22:16.909Z,5.50
2023-04-30T08:23:17.106Z,6.00
2023-04-30T08:24:16.956Z,8.20
2023-04-30T08:25:16.868Z,8.20
2023-04-30T08:26:16.938Z,8.00
2023-04-30T08:27:16.946Z,7.50
2023-04-30T08:28:16.893Z,7.10
2023-04-30T08:29:16.867Z,8.20
2023-04-30T08:30:16.842Z,6.10
2023-04-30T08:31:16.785Z,7.20
2023-04-30T08:32:16.831Z,7.70
2023-04-30T08:33:16.842Z,4.80
2023-04-30T08:34:16.748Z,6.30
2023-04-30T08:35:16.720Z,6.20
2023-04-30T08:36:16.718Z,4.80
2023-04-30T08:37:16.695Z,5.50
2023-04-30T08:38:16.703Z,7.50
2023-04-30T08:39:16.674Z,6.80
2023-04-30T08:40:16.662Z,4.80
2023-04-30T08:41:16.653Z,6.60
2023-04-30T08:42:16.636Z,5.60
2023-04-30T08:43:16.655Z,7.30
2023-04-30T08:44:16.617Z,6.90
2023-04-30T08:45:16.608Z,6.60
2023-04-30T08:46:16.678Z,8.50
2023-04-30T08:47:16.585Z,6.10
2023-04-30T08:48:16.766Z,5.80
2023-04-30T08:49:16.556Z,6.10
2023-04-30T08:50:16.566Z,6.10
2023-04-30T08:51:16.544Z,6.20
2023-04-30T08:52:16.527Z,6.50
2023-04-30T08:53:16.531Z,5.10
2023-04-30T08:54:16.505Z,5.50
2023-04-30T08:55:16.494Z,6.80
2023-04-30T08:56:16.488Z,8.50
2023-04-30T08:57:16.464Z,6.20
2023-04-30T08:58:16.469Z,9.80
2023-04-30T08:59:16.449Z,6.40
2023-04-30T09:00:16.451Z,7.80
2023-04-30T09:01:16.505Z,6.30
2023-04-30T09:02:16.542Z,7.60
2023-04-30T09:03:16.510Z,5.20
2023-04-30T09:04:16.385Z,6.50
2023-04-30T09:05:16.372Z,5.80
2023-04-30T09:06:16.415Z,6.70
2023-04-30T09:07:16.354Z,8.80
2023-04-30T09:08:16.360Z,5.80
2023-04-30T09:09:16.323Z,4.60
2023-04-30T09:10:16.322Z,7.70
2023-04-30T09:11:16.306Z,7.40
2023-04-30T09:12:18.631Z,7.40
2023-04-30T09:13:16.300Z,5.70
2023-04-30T09:14:16.271Z,6.20
2023-04-30T09:15:16.269Z,6.00
2023-04-30T09:16:16.290Z,6.70
2023-04-30T09:17:16.240Z,7.40
2023-04-30T09:18:16.385Z,8.00
2023-04-30T09:19:16.485Z,5.60
2023-04-30T09:20:16.203Z,5.90
2023-04-30T09:21:16.195Z,5.80
2023-04-30T09:22:16.204Z,4.90
2023-04-30T09:23:16.189Z,4.90
2023-04-30T09:24:17.281Z,7.10
2023-04-30T09:25:16.146Z,3.70
2023-04-30T09:26:16.145Z,7.50
2023-04-30T09:27:16.125Z,5.20
2023-04-30T09:28:16.259Z,6.50
2023-04-30T09:29:16.110Z,6.10
2023-04-30T09:30:16.090Z,5.20
2023-04-30T09:31:16.086Z,4.10
2023-04-30T09:32:16.162Z,3.90
2023-04-30T09:33:16.075Z,5.60
2023-04-30T09:34:16.064Z,5.30
2023-04-30T09:35:16.041Z,5.80
2023-04-30T09:36:16.028Z,8.80
2023-04-30T09:37:16.061Z,10.20
2023-04-30T09:38:16.034Z,5.40
2023-04-30T09:39:16.345Z,4.10
2023-04-30T09:40:16.058Z,5.30
2023-04-30T09:41:15.990Z,5.60
2023-04-30T09:42:15.957Z,7.70
2023-04-30T09:43:15.962Z,6.10
2023-04-30T09:44:15.950Z,5.00
2023-04-30T09:45:15.925Z,8.30
2023-04-30T09:46:15.934Z,7.10
2023-04-30T09:47:15.899Z,4.10
2023-04-30T09:48:17.632Z,7.30
2023-04-30T09:49:15.889Z,5.80
2023-04-30T09:50:15.906Z,5.90
2023-04-30T09:51:15.857Z,5.70
2023-04-30T09:52:15.866Z,5.90
2023-04-30T09:53:15.855Z,4.00
2023-04-30T09:54:15.857Z,4.90
2023-04-30T09:55:15.819Z,5.40
2023-04-30T09:56:15.809Z,6.80
2023-04-30T09:57:15.813Z,5.50
2023-04-30T09:58:16.351Z,3.80
2023-04-30T09:59:15.766Z,7.60
2023-04-30T10:00:15.803Z,6.40
2023-04-30T10:01:15.814Z,6.90
2023-04-30T10:02:15.742Z,5.20
2023-04-30T10:03:15.737Z,4.80
2023-04-30T10:04:15.755Z,5.70
2023-04-30T10:05:15.701Z,4.40
2023-04-30T10:06:15.768Z,6.50
2023-04-30T10:07:16.651Z,6.60
2023-04-30T10:08:15.687Z,5.30
2023-04-30T10:09:15.661Z,5.60
2023-04-30T10:10:15.685Z,5.30
2023-04-30T10:11:15.633Z,6.20
2023-04-30T10:12:15.630Z,7.00
2023-04-30T10:13:15.632Z,5.90
2023-04-30T10:14:15.635Z,4.40
2023-04-30T10:15:15.608Z,6.70
2023-04-30T10:16:15.583Z,3.30
2023-04-30T10:17:15.571Z,6.60
2023-04-30T10:18:15.573Z,4.20
2023-04-30T10:19:15.562Z,5.10
2023-04-30T10:20:15.545Z,5.40
2023-04-30T10:21:15.528Z,5.40
2023-04-30T10:22:15.514Z,5.30
2023-04-30T10:23:15.519Z,5.50
2023-04-30T10:24:15.486Z,5.80
2023-04-30T10:25:15.473Z,5.40
2023-04-30T10:26:15.477Z,6.30
2023-04-30T10:27:15.454Z,6.10
2023-04-30T10:28:15.458Z,5.50
2023-04-30T10:29:15.430Z,5.20
2023-04-30T10:30:15.440Z,5.40
2023-04-30T10:31:15.407Z,6.10
2023-04-30T10:32:15.438Z,5.40
2023-04-30T10:33:16.616Z,5.00
2023-04-30T10:34:15.379Z,4.30
2023-04-30T10:35:15.362Z,7.00
2023-04-30T10:36:15.354Z,4.10
2023-04-30T10:37:15.348Z,6.30
2023-04-30T10:38:15.351Z,5.00
2023-04-30T10:39:15.316Z,5.20
2023-04-30T10:40:15.319Z,6.80
2023-04-30T10:41:15.293Z,4.30
2023-04-30T10:42:15.300Z,5.30
2023-04-30T10:43:15.284Z,6.20
2023-04-30T10:44:15.273Z,5.60
2023-04-30T10:45:15.247Z,3.60
2023-04-30T10:46:15.298Z,6.00
2023-04-30T10:47:15.232Z,4.00
2023-04-30T10:48:15.328Z,5.60
2023-04-30T10:49:15.226Z,4.90
2023-04-30T10:50:15.197Z,5.60
2023-04-30T10:51:15.185Z,4.70
2023-04-30T10:52:15.174Z,4.90
2023-04-30T10:53:15.158Z,4.40
2023-04-30T10:54:15.170Z,5.10
2023-04-30T10:55:15.148Z,4.20
2023-04-30T10:56:15.122Z,4.10
2023-04-30T10:57:15.113Z,4.20
2023-04-30T10:58:15.126Z,4.50
2023-04-30T10:59:15.106Z,4.70
2023-04-30T11:00:15.112Z,4.90
2023-04-30T11:01:15.121Z,3.60
2023-04-30T11:02:15.071Z,2.90
2023-04-30T11:03:15.051Z,5.80
2023-04-30T11:04:15.119Z,3.40
2023-04-30T11:05:15.187Z,3.60
2023-04-30T11:06:15.191Z,6.50
2023-04-30T11:07:15.002Z,3.40
2023-04-30T11:08:15.002Z,3.10
2023-04-30T11:09:15.005Z,3.40
2023-04-30T11:10:14.978Z,4.10
2023-04-30T11:11:14.958Z,5.40
2023-04-30T11:12:14.967Z,3.70
2023-04-30T11:13:14.932Z,4.00
2023-04-30T11:14:14.965Z,3.90
2023-04-30T11:15:14.928Z,3.10
2023-04-30T11:16:14.999Z,3.00
2023-04-30T11:17:14.891Z,3.30
2023-04-30T11:18:14.878Z,4.00
2023-04-30T11:19:14.885Z,2.40
2023-04-30T11:20:14.879Z,3.30
2023-04-30T11:21:14.851Z,3.00
2023-04-30T11:22:14.873Z,3.50
2023-04-30T11:23:21.844Z,3.20
2023-04-30T11:24:15.835Z,3.40
2023-04-30T11:25:14.810Z,3.30
2023-04-30T11:26:14.792Z,3.70
2023-04-30T11:27:14.786Z,2.40
2023-04-30T11:28:14.764Z,4.00
2023-04-30T11:29:14.841Z,3.30
2023-04-30T11:30:14.783Z,3.30
2023-04-30T11:31:15.554Z,1.70
2023-04-30T11:32:14.739Z,3.60
2023-04-30T11:33:14.937Z,3.50
2023-04-30T11:34:14.716Z,3.20
2023-04-30T11:35:14.695Z,3.10
2023-04-30T11:36:14.690Z,2.50
2023-04-30T11:37:14.666Z,2.80
2023-04-30T11:38:14.674Z,2.10
2023-04-30T11:39:14.668Z,3.00
2023-04-30T11:40:14.638Z,3.80
2023-04-30T11:41:14.641Z,2.60
2023-04-30T11:42:14.613Z,1.40
2023-04-30T11:43:14.613Z,4.60
2023-04-30T11:44:14.606Z,2.60
2023-04-30T11:45:14.582Z,2.20
2023-04-30T11:46:14.633Z,1.50
2023-04-30T11:47:14.553Z,3.50
2023-04-30T11:48:14.675Z,2.20
2023-04-30T11:49:14.542Z,2.00
2023-04-30T11:50:14.529Z,1.40
2023-04-30T11:51:14.565Z,2.60
2023-04-30T11:52:14.524Z,2.10
2023-04-30T11:53:14.510Z,1.90
2023-04-30T11:54:14.487Z,3.70
2023-04-30T11:55:14.469Z,0.90
2023-04-30T11:56:14.490Z,1.80
2023-04-30T11:57:14.447Z,3.10
2023-04-30T11:58:14.500Z,2.00
2023-04-30T11:59:14.436Z,2.60
2023-04-30T12:00:14.420Z,2.40
2023-04-30T12:01:14.402Z,1.70
2023-04-30T12:02:14.476Z,1.30
2023-04-30T12:03:14.499Z,1.40
2023-04-30T12:04:14.505Z,1.70
2023-04-30T12:05:14.366Z,3.10
2023-04-30T12:06:14.403Z,1.50
2023-04-30T12:07:14.393Z,3.70
2023-04-30T12:08:14.335Z,2.20
2023-04-30T12:09:14.320Z,1.50
2023-04-30T12:10:14.329Z,2.50
2023-04-30T12:11:14.324Z,2.50
2023-04-30T12:12:14.275Z,2.40
2023-04-30T12:13:14.309Z,3.60
2023-04-30T12:14:14.262Z,2.80
2023-04-30T12:15:14.246Z,2.30
2023-04-30T12:16:14.266Z,3.70
2023-04-30T12:17:14.259Z,3.70
2023-04-30T12:18:14.378Z,2.80
2023-04-30T12:19:14.252Z,3.80
2023-04-30T12:20:14.195Z,3.10
2023-04-30T12:21:14.183Z,4.10
2023-04-30T12:22:14.161Z,3.60
2023-04-30T12:23:14.175Z,4.20
2023-04-30T12:24:14.147Z,3.90
2023-04-30T12:25:14.126Z,2.70
2023-04-30T12:26:14.116Z,3.30
2023-04-30T12:27:14.129Z,3.10
2023-04-30T12:28:14.115Z,3.40
2023-04-30T12:29:15.566Z,4.70
2023-04-30T12:30:14.069Z,3.20
2023-04-30T12:31:14.083Z,2.30
2023-04-30T12:32:14.084Z,2.20
2023-04-30T12:33:14.132Z,3.20
2023-04-30T12:34:14.051Z,2.90
2023-04-30T12:35:14.532Z,4.40
2023-04-30T12:36:14.011Z,2.30
2023-04-30T12:37:13.992Z,3.20
2023-04-30T12:38:14.007Z,2.10
2023-04-30T12:39:14.004Z,4.10
2023-04-30T12:40:13.986Z,1.70
2023-04-30T12:41:13.950Z,4.30
2023-04-30T12:42:13.971Z,2.90
2023-04-30T12:43:13.955Z,3.20
2023-04-30T12:44:13.919Z,2.60
2023-04-30T12:45:13.932Z,4.00
2023-04-30T12:46:13.931Z,3.70
2023-04-30T12:47:13.883Z,3.20
2023-04-30T12:48:13.913Z,3.00
2023-04-30T12:49:13.867Z,3.00
2023-04-30T12:50:13.914Z,2.90
2023-04-30T12:51:13.917Z,4.10
2023-04-30T12:52:13.825Z,3.10
2023-04-30T12:53:13.837Z,2.80
2023-04-30T12:54:13.936Z,3.10
2023-04-30T12:55:13.870Z,4.80
2023-04-30T12:56:13.780Z,2.30
2023-04-30T12:57:13.764Z,3.20
2023-04-30T12:58:13.850Z,2.60
2023-04-30T12:59:13.833Z,5.20
2023-04-30T13:00:13.854Z,2.40
2023-04-30T13:01:13.893Z,3.50
2023-04-30T13:02:13.865Z,3.60
2023-04-30T13:03:14.041Z,3.90
2023-04-30T13:04:13.889Z,3.10
2023-04-30T13:05:15.426Z,3.60
2023-04-30T13:06:13.708Z,3.00
2023-04-30T13:07:13.787Z,5.60
2023-04-30T13:08:13.955Z,4.30
2023-04-30T13:09:13.632Z,2.90
2023-04-30T13:10:13.718Z,3.70